sensor_id;sensor_type;location;lat;lon;timestamp;P1;durP1;ratioP1;P2;durP2;ratioP2
25962;SDS011;13760;52.588;13.406;2024-03-08T00:00:16;43.08;;;24.40;;
25962;SDS011;13760;52.588;13.406;2024-03-08T00:02:45;47.47;;;24.63;;
25962;SDS011;13760;52.588;13.406;2024-03-08T00:05:11;46.60;;;24.05;;
25962;SDS011;13760;52.588;13.406;2024-03-08T00:07:38;48.53;;;23.80;;
25962;SDS011;13760;52.588;13.406;2024-03-08T00:10:04;46.05;;;23.88;;
25962;SDS011;13760;52.588;13.406;2024-03-08T00:12:31;47.60;;;24.02;;
25962;SDS011;13760;52.588;13.406;2024-03-08T00:14:57;49.50;;;24.95;;
25962;SDS011;13760;52.588;13.406;2024-03-08T00:17:22;48.58;;;24.67;;
25962;SDS011;13760;52.588;13.406;2024-03-08T00:19:51;50.42;;;24.33;;
25962;SDS011;13760;52.588;13.406;2024-03-08T00:22:17;46.17;;;23.88;;
25962;SDS011;13760;52.588;13.406;2024-03-08T00:24:42;46.85;;;24.83;;
25962;SDS011;13760;52.588;13.406;2024-03-08T00:27:08;47.72;;;24.58;;
25962;SDS011;13760;52.588;13.406;2024-03-08T00:29:34;49.00;;;25.35;;
25962;SDS011;13760;52.588;13.406;2024-03-08T00:32:00;53.30;;;25.10;;
25962;SDS011;13760;52.588;13.406;2024-03-08T00:34:26;52.22;;;24.88;;
25962;SDS011;13760;52.588;13.406;2024-03-08T00:36:51;48.83;;;24.90;;
25962;SDS011;13760;52.588;13.406;2024-03-08T00:39:17;52.05;;;24.70;;
25962;SDS011;13760;52.588;13.406;2024-03-08T00:41:45;47.65;;;24.95;;
25962;SDS011;13760;52.588;13.406;2024-03-08T00:44:10;46.92;;;24.95;;
25962;SDS011;13760;52.588;13.406;2024-03-08T00:46:36;48.80;;;25.00;;
25962;SDS011;13760;52.588;13.406;2024-03-08T00:49:01;49.70;;;25.80;;
25962;SDS011;13760;52.588;13.406;2024-03-08T00:51:27;46.35;;;24.42;;
25962;SDS011;13760;52.588;13.406;2024-03-08T00:53:53;52.95;;;25.92;;
25962;SDS011;13760;52.588;13.406;2024-03-08T00:56:18;49.25;;;25.40;;
25962;SDS011;13760;52.588;13.406;2024-03-08T00:58:44;47.10;;;25.17;;
25962;SDS011;13760;52.588;13.406;2024-03-08T01:01:09;48.28;;;25.40;;
25962;SDS011;13760;52.588;13.406;2024-03-08T01:03:35;50.88;;;26.65;;
25962;SDS011;13760;52.588;13.406;2024-03-08T01:06:01;52.05;;;26.52;;
25962;SDS011;13760;52.588;13.406;2024-03-08T01:08:27;49.60;;;26.10;;
25962;SDS011;13760;52.588;13.406;2024-03-08T01:10:53;53.15;;;24.75;;
25962;SDS011;13760;52.588;13.406;2024-03-08T01:13:19;45.75;;;25.52;;
25962;SDS011;13760;52.588;13.406;2024-03-08T01:15:44;48.40;;;25.15;;
25962;SDS011;13760;52.588;13.406;2024-03-08T01:18:10;48.72;;;25.92;;
25962;SDS011;13760;52.588;13.406;2024-03-08T01:20:36;53.00;;;25.08;;
25962;SDS011;13760;52.588;13.406;2024-03-08T01:23:02;49.55;;;26.17;;
25962;SDS011;13760;52.588;13.406;2024-03-08T01:25:28;47.45;;;25.02;;
25962;SDS011;13760;52.588;13.406;2024-03-08T01:27:54;55.03;;;27.33;;
25962;SDS011;13760;52.588;13.406;2024-03-08T01:30:19;47.30;;;24.58;;
25962;SDS011;13760;52.588;13.406;2024-03-08T01:32:45;54.13;;;26.00;;
25962;SDS011;13760;52.588;13.406;2024-03-08T01:35:10;49.67;;;26.58;;
25962;SDS011;13760;52.588;13.406;2024-03-08T01:37:36;56.42;;;27.35;;
25962;SDS011;13760;52.588;13.406;2024-03-08T01:40:02;53.63;;;27.88;;
25962;SDS011;13760;52.588;13.406;2024-03-08T01:42:28;53.53;;;26.30;;
25962;SDS011;13760;52.588;13.406;2024-03-08T01:44:54;52.70;;;27.35;;
25962;SDS011;13760;52.588;13.406;2024-03-08T01:47:19;59.92;;;27.38;;
25962;SDS011;13760;52.588;13.406;2024-03-08T01:49:48;55.60;;;27.23;;
25962;SDS011;13760;52.588;13.406;2024-03-08T01:52:17;51.28;;;25.83;;
25962;SDS011;13760;52.588;13.406;2024-03-08T01:54:47;52.42;;;27.15;;
25962;SDS011;13760;52.588;13.406;2024-03-08T01:57:13;56.50;;;27.83;;
25962;SDS011;13760;52.588;13.406;2024-03-08T01:59:40;53.63;;;25.48;;
25962;SDS011;13760;52.588;13.406;2024-03-08T02:02:06;52.88;;;26.30;;
25962;SDS011;13760;52.588;13.406;2024-03-08T02:04:33;49.83;;;24.65;;
25962;SDS011;13760;52.588;13.406;2024-03-08T02:07:01;51.25;;;26.33;;
25962;SDS011;13760;52.588;13.406;2024-03-08T02:09:26;55.08;;;26.60;;
25962;SDS011;13760;52.588;13.406;2024-03-08T02:11:52;53.40;;;25.13;;
25962;SDS011;13760;52.588;13.406;2024-03-08T02:14:19;53.90;;;26.63;;
25962;SDS011;13760;52.588;13.406;2024-03-08T02:16:45;50.35;;;25.70;;
25962;SDS011;13760;52.588;13.406;2024-03-08T02:19:10;48.08;;;25.50;;
25962;SDS011;13760;52.588;13.406;2024-03-08T02:21:36;52.03;;;26.45;;
25962;SDS011;13760;52.588;13.406;2024-03-08T02:24:03;51.00;;;26.30;;
25962;SDS011;13760;52.588;13.406;2024-03-08T02:26:29;62.13;;;27.70;;
25962;SDS011;13760;52.588;13.406;2024-03-08T02:28:55;52.83;;;27.48;;
25962;SDS011;13760;52.588;13.406;2024-03-08T02:31:21;51.13;;;26.42;;
25962;SDS011;13760;52.588;13.406;2024-03-08T02:33:46;53.70;;;26.52;;
25962;SDS011;13760;52.588;13.406;2024-03-08T02:36:12;51.22;;;26.67;;
25962;SDS011;13760;52.588;13.406;2024-03-08T02:38:38;49.95;;;26.50;;
25962;SDS011;13760;52.588;13.406;2024-03-08T02:41:06;56.10;;;27.00;;
25962;SDS011;13760;52.588;13.406;2024-03-08T02:43:33;55.78;;;26.67;;
25962;SDS011;13760;52.588;13.406;2024-03-08T02:45:59;52.08;;;26.33;;
25962;SDS011;13760;52.588;13.406;2024-03-08T02:48:25;54.38;;;27.08;;
25962;SDS011;13760;52.588;13.406;2024-03-08T02:50:50;57.40;;;27.20;;
25962;SDS011;13760;52.588;13.406;2024-03-08T02:53:16;54.20;;;26.45;;
25962;SDS011;13760;52.588;13.406;2024-03-08T02:55:43;50.22;;;26.40;;
25962;SDS011;13760;52.588;13.406;2024-03-08T02:58:09;52.58;;;26.30;;
25962;SDS011;13760;52.588;13.406;2024-03-08T03:00:36;52.53;;;25.30;;
25962;SDS011;13760;52.588;13.406;2024-03-08T03:03:02;59.28;;;27.40;;
25962;SDS011;13760;52.588;13.406;2024-03-08T03:05:28;54.75;;;25.90;;
25962;SDS011;13760;52.588;13.406;2024-03-08T03:07:54;53.88;;;27.10;;
25962;SDS011;13760;52.588;13.406;2024-03-08T03:10:20;55.92;;;26.40;;
25962;SDS011;13760;52.588;13.406;2024-03-08T03:12:49;52.05;;;26.33;;
25962;SDS011;13760;52.588;13.406;2024-03-08T03:15:15;49.83;;;26.30;;
25962;SDS011;13760;52.588;13.406;2024-03-08T03:17:47;51.75;;;26.20;;
25962;SDS011;13760;52.588;13.406;2024-03-08T03:20:13;48.50;;;25.42;;
25962;SDS011;13760;52.588;13.406;2024-03-08T03:22:39;51.55;;;25.52;;
25962;SDS011;13760;52.588;13.406;2024-03-08T03:25:06;58.88;;;27.45;;
25962;SDS011;13760;52.588;13.406;2024-03-08T03:27:33;54.97;;;26.67;;
25962;SDS011;13760;52.588;13.406;2024-03-08T03:29:58;53.15;;;25.90;;
25962;SDS011;13760;52.588;13.406;2024-03-08T03:32:44;53.72;;;24.90;;
25962;SDS011;13760;52.588;13.406;2024-03-08T03:35:12;53.10;;;26.85;;
25962;SDS011;13760;52.588;13.406;2024-03-08T03:37:38;52.42;;;26.10;;
25962;SDS011;13760;52.588;13.406;2024-03-08T03:40:05;54.33;;;26.08;;
25962;SDS011;13760;52.588;13.406;2024-03-08T03:42:33;56.03;;;25.35;;
25962;SDS011;13760;52.588;13.406;2024-03-08T03:44:59;49.63;;;25.45;;
25962;SDS011;13760;52.588;13.406;2024-03-08T03:47:24;56.72;;;27.27;;
25962;SDS011;13760;52.588;13.406;2024-03-08T03:49:52;53.03;;;26.50;;
25962;SDS011;13760;52.588;13.406;2024-03-08T03:52:19;53.25;;;25.45;;
25962;SDS011;13760;52.588;13.406;2024-03-08T03:54:44;55.00;;;26.70;;
25962;SDS011;13760;52.588;13.406;2024-03-08T03:57:10;51.42;;;25.67;;
25962;SDS011;13760;52.588;13.406;2024-03-08T03:59:37;53.92;;;25.20;;
25962;SDS011;13760;52.588;13.406;2024-03-08T04:02:02;57.88;;;26.98;;
25962;SDS011;13760;52.588;13.406;2024-03-08T04:04:29;54.13;;;25.30;;
25962;SDS011;13760;52.588;13.406;2024-03-08T04:06:54;54.83;;;25.83;;
25962;SDS011;13760;52.588;13.406;2024-03-08T04:09:20;53.08;;;25.95;;
25962;SDS011;13760;52.588;13.406;2024-03-08T04:11:47;53.13;;;25.58;;
25962;SDS011;13760;52.588;13.406;2024-03-08T04:14:13;54.80;;;26.80;;
25962;SDS011;13760;52.588;13.406;2024-03-08T04:16:38;52.33;;;26.42;;
25962;SDS011;13760;52.588;13.406;2024-03-08T04:19:04;54.35;;;25.65;;
25962;SDS011;13760;52.588;13.406;2024-03-08T04:21:30;55.20;;;26.90;;
25962;SDS011;13760;52.588;13.406;2024-03-08T04:23:55;51.60;;;25.52;;
25962;SDS011;13760;52.588;13.406;2024-03-08T04:26:21;58.95;;;25.98;;
25962;SDS011;13760;52.588;13.406;2024-03-08T04:28:47;54.00;;;27.05;;
25962;SDS011;13760;52.588;13.406;2024-03-08T04:31:12;58.78;;;27.35;;
25962;SDS011;13760;52.588;13.406;2024-03-08T04:33:38;58.08;;;26.83;;
25962;SDS011;13760;52.588;13.406;2024-03-08T04:36:04;56.40;;;27.95;;
25962;SDS011;13760;52.588;13.406;2024-03-08T04:38:30;54.28;;;25.33;;
25962;SDS011;13760;52.588;13.406;2024-03-08T04:40:56;55.83;;;27.33;;
25962;SDS011;13760;52.588;13.406;2024-03-08T04:43:22;53.10;;;26.60;;
25962;SDS011;13760;52.588;13.406;2024-03-08T04:45:51;56.70;;;28.23;;
25962;SDS011;13760;52.588;13.406;2024-03-08T04:48:17;57.38;;;26.50;;
25962;SDS011;13760;52.588;13.406;2024-03-08T04:50:43;53.70;;;25.75;;
25962;SDS011;13760;52.588;13.406;2024-03-08T04:53:09;55.92;;;27.05;;
25962;SDS011;13760;52.588;13.406;2024-03-08T04:55:35;58.92;;;27.90;;
25962;SDS011;13760;52.588;13.406;2024-03-08T04:58:02;53.10;;;26.77;;
25962;SDS011;13760;52.588;13.406;2024-03-08T05:00:29;58.40;;;28.08;;
25962;SDS011;13760;52.588;13.406;2024-03-08T05:02:55;56.00;;;27.42;;
25962;SDS011;13760;52.588;13.406;2024-03-08T05:05:20;63.97;;;28.77;;
25962;SDS011;13760;52.588;13.406;2024-03-08T05:07:47;57.25;;;27.40;;
25962;SDS011;13760;52.588;13.406;2024-03-08T05:10:13;58.35;;;27.92;;
25962;SDS011;13760;52.588;13.406;2024-03-08T05:12:42;53.60;;;27.02;;
25962;SDS011;13760;52.588;13.406;2024-03-08T05:15:08;55.42;;;28.05;;
25962;SDS011;13760;52.588;13.406;2024-03-08T05:17:33;64.60;;;28.08;;
25962;SDS011;13760;52.588;13.406;2024-03-08T05:19:59;55.60;;;26.92;;
25962;SDS011;13760;52.588;13.406;2024-03-08T05:22:24;56.72;;;28.58;;
25962;SDS011;13760;52.588;13.406;2024-03-08T05:24:51;57.70;;;27.17;;
25962;SDS011;13760;52.588;13.406;2024-03-08T05:27:16;53.55;;;26.33;;
25962;SDS011;13760;52.588;13.406;2024-03-08T05:29:42;55.42;;;26.55;;
25962;SDS011;13760;52.588;13.406;2024-03-08T05:32:08;62.92;;;27.55;;
25962;SDS011;13760;52.588;13.406;2024-03-08T05:34:34;58.08;;;26.63;;
25962;SDS011;13760;52.588;13.406;2024-03-08T05:37:00;64.38;;;28.80;;
25962;SDS011;13760;52.588;13.406;2024-03-08T05:39:26;58.42;;;28.38;;
25962;SDS011;13760;52.588;13.406;2024-03-08T05:41:52;59.67;;;26.55;;
25962;SDS011;13760;52.588;13.406;2024-03-08T05:44:17;63.75;;;29.25;;
25962;SDS011;13760;52.588;13.406;2024-03-08T05:46:44;56.80;;;27.90;;
25962;SDS011;13760;52.588;13.406;2024-03-08T05:49:11;56.75;;;27.42;;
25962;SDS011;13760;52.588;13.406;2024-03-08T05:51:37;63.00;;;29.48;;
25962;SDS011;13760;52.588;13.406;2024-03-08T05:54:07;62.55;;;29.58;;
25962;SDS011;13760;52.588;13.406;2024-03-08T05:56:35;63.15;;;28.55;;
25962;SDS011;13760;52.588;13.406;2024-03-08T05:59:00;64.85;;;29.65;;
25962;SDS011;13760;52.588;13.406;2024-03-08T06:01:26;59.78;;;27.95;;
25962;SDS011;13760;52.588;13.406;2024-03-08T06:03:53;63.72;;;28.90;;
25962;SDS011;13760;52.588;13.406;2024-03-08T06:06:21;66.97;;;30.00;;
25962;SDS011;13760;52.588;13.406;2024-03-08T06:08:47;61.40;;;29.65;;
25962;SDS011;13760;52.588;13.406;2024-03-08T06:11:14;59.70;;;28.10;;
25962;SDS011;13760;52.588;13.406;2024-03-08T06:13:40;59.67;;;28.25;;
25962;SDS011;13760;52.588;13.406;2024-03-08T06:16:05;60.90;;;30.27;;
25962;SDS011;13760;52.588;13.406;2024-03-08T06:18:33;59.92;;;28.58;;
25962;SDS011;13760;52.588;13.406;2024-03-08T06:21:02;59.85;;;28.20;;
25962;SDS011;13760;52.588;13.406;2024-03-08T06:23:29;71.82;;;30.27;;
25962;SDS011;13760;52.588;13.406;2024-03-08T06:25:55;62.13;;;29.20;;
25962;SDS011;13760;52.588;13.406;2024-03-08T06:28:22;68.15;;;30.80;;
25962;SDS011;13760;52.588;13.406;2024-03-08T06:30:48;63.40;;;30.50;;
25962;SDS011;13760;52.588;13.406;2024-03-08T06:33:15;61.00;;;29.63;;
25962;SDS011;13760;52.588;13.406;2024-03-08T06:35:41;67.60;;;32.45;;
25962;SDS011;13760;52.588;13.406;2024-03-08T06:38:06;62.70;;;28.88;;
25962;SDS011;13760;52.588;13.406;2024-03-08T06:40:32;64.03;;;29.65;;
25962;SDS011;13760;52.588;13.406;2024-03-08T06:42:58;66.63;;;29.90;;
25962;SDS011;13760;52.588;13.406;2024-03-08T06:45:23;60.45;;;29.70;;
25962;SDS011;13760;52.588;13.406;2024-03-08T06:47:50;67.32;;;31.70;;
25962;SDS011;13760;52.588;13.406;2024-03-08T06:50:16;67.28;;;32.13;;
25962;SDS011;13760;52.588;13.406;2024-03-08T06:52:42;62.85;;;30.05;;
25962;SDS011;13760;52.588;13.406;2024-03-08T06:55:09;63.63;;;30.60;;
25962;SDS011;13760;52.588;13.406;2024-03-08T06:57:38;67.40;;;31.80;;
25962;SDS011;13760;52.588;13.406;2024-03-08T07:00:05;64.85;;;31.75;;
25962;SDS011;13760;52.588;13.406;2024-03-08T07:02:34;64.82;;;30.65;;
25962;SDS011;13760;52.588;13.406;2024-03-08T07:05:00;68.40;;;31.50;;
25962;SDS011;13760;52.588;13.406;2024-03-08T07:07:26;65.20;;;31.88;;
25962;SDS011;13760;52.588;13.406;2024-03-08T07:09:52;63.08;;;31.83;;
25962;SDS011;13760;52.588;13.406;2024-03-08T07:12:17;67.80;;;32.40;;
25962;SDS011;13760;52.588;13.406;2024-03-08T07:14:43;64.65;;;32.47;;
25962;SDS011;13760;52.588;13.406;2024-03-08T07:17:10;63.67;;;33.25;;
25962;SDS011;13760;52.588;13.406;2024-03-08T07:19:36;62.95;;;32.22;;
25962;SDS011;13760;52.588;13.406;2024-03-08T07:22:03;62.22;;;31.95;;
25962;SDS011;13760;52.588;13.406;2024-03-08T07:24:29;72.13;;;35.47;;
25962;SDS011;13760;52.588;13.406;2024-03-08T07:27:13;68.45;;;33.60;;
25962;SDS011;13760;52.588;13.406;2024-03-08T07:29:38;69.40;;;33.35;;
25962;SDS011;13760;52.588;13.406;2024-03-08T07:32:04;63.42;;;33.55;;
25962;SDS011;13760;52.588;13.406;2024-03-08T07:34:51;62.97;;;32.38;;
25962;SDS011;13760;52.588;13.406;2024-03-08T07:37:28;48.00;;;24.35;;
25962;SDS011;13760;52.588;13.406;2024-03-08T07:39:54;58.35;;;30.52;;
25962;SDS011;13760;52.588;13.406;2024-03-08T07:42:20;59.92;;;31.77;;
25962;SDS011;13760;52.588;13.406;2024-03-08T07:44:50;64.03;;;32.03;;
25962;SDS011;13760;52.588;13.406;2024-03-08T07:47:17;63.55;;;31.13;;
25962;SDS011;13760;52.588;13.406;2024-03-08T07:49:43;73.13;;;32.10;;
25962;SDS011;13760;52.588;13.406;2024-03-08T07:52:09;68.65;;;32.58;;
25962;SDS011;13760;52.588;13.406;2024-03-08T07:54:34;64.72;;;31.63;;
25962;SDS011;13760;52.588;13.406;2024-03-08T07:57:00;65.93;;;32.20;;
25962;SDS011;13760;52.588;13.406;2024-03-08T07:59:28;66.13;;;32.08;;
25962;SDS011;13760;52.588;13.406;2024-03-08T08:01:54;67.72;;;32.28;;
25962;SDS011;13760;52.588;13.406;2024-03-08T08:04:20;60.97;;;30.20;;
25962;SDS011;13760;52.588;13.406;2024-03-08T08:06:50;56.40;;;28.92;;
25962;SDS011;13760;52.588;13.406;2024-03-08T08:09:16;60.45;;;29.95;;
25962;SDS011;13760;52.588;13.406;2024-03-08T08:11:53;54.58;;;28.90;;
25962;SDS011;13760;52.588;13.406;2024-03-08T08:14:20;53.47;;;28.23;;
25962;SDS011;13760;52.588;13.406;2024-03-08T08:16:46;49.35;;;27.17;;
25962;SDS011;13760;52.588;13.406;2024-03-08T08:19:14;55.13;;;28.40;;
25962;SDS011;13760;52.588;13.406;2024-03-08T08:21:40;53.35;;;27.55;;
25962;SDS011;13760;52.588;13.406;2024-03-08T08:24:06;54.65;;;27.38;;
25962;SDS011;13760;52.588;13.406;2024-03-08T08:26:31;50.05;;;28.00;;
25962;SDS011;13760;52.588;13.406;2024-03-08T08:28:59;50.55;;;26.98;;
25962;SDS011;13760;52.588;13.406;2024-03-08T08:31:25;49.78;;;26.85;;
25962;SDS011;13760;52.588;13.406;2024-03-08T08:33:51;50.92;;;26.73;;
25962;SDS011;13760;52.588;13.406;2024-03-08T08:36:22;53.78;;;27.20;;
25962;SDS011;13760;52.588;13.406;2024-03-08T08:38:48;46.20;;;26.95;;
25962;SDS011;13760;52.588;13.406;2024-03-08T08:41:14;53.30;;;27.23;;
25962;SDS011;13760;52.588;13.406;2024-03-08T08:43:41;44.10;;;25.23;;
25962;SDS011;13760;52.588;13.406;2024-03-08T08:46:09;48.33;;;25.77;;
25962;SDS011;13760;52.588;13.406;2024-03-08T08:48:38;45.95;;;24.15;;
25962;SDS011;13760;52.588;13.406;2024-03-08T08:51:06;48.63;;;26.00;;
25962;SDS011;13760;52.588;13.406;2024-03-08T08:56:03;45.60;;;24.55;;
25962;SDS011;13760;52.588;13.406;2024-03-08T08:58:29;47.00;;;25.10;;
25962;SDS011;13760;52.588;13.406;2024-03-08T09:00:54;46.78;;;24.70;;
25962;SDS011;13760;52.588;13.406;2024-03-08T09:03:20;42.75;;;23.73;;
25962;SDS011;13760;52.588;13.406;2024-03-08T09:05:45;42.55;;;23.25;;
25962;SDS011;13760;52.588;13.406;2024-03-08T09:08:11;42.70;;;23.23;;
25962;SDS011;13760;52.588;13.406;2024-03-08T09:10:37;40.78;;;23.30;;
25962;SDS011;13760;52.588;13.406;2024-03-08T09:13:04;43.33;;;23.67;;
25962;SDS011;13760;52.588;13.406;2024-03-08T09:15:29;43.22;;;23.83;;
25962;SDS011;13760;52.588;13.406;2024-03-08T09:17:55;39.00;;;23.33;;
25962;SDS011;13760;52.588;13.406;2024-03-08T09:20:20;44.33;;;23.98;;
25962;SDS011;13760;52.588;13.406;2024-03-08T09:22:46;49.85;;;25.27;;
25962;SDS011;13760;52.588;13.406;2024-03-08T09:25:11;40.22;;;24.13;;
25962;SDS011;13760;52.588;13.406;2024-03-08T09:27:37;46.05;;;26.45;;
25962;SDS011;13760;52.588;13.406;2024-03-08T09:30:04;42.80;;;24.23;;
25962;SDS011;13760;52.588;13.406;2024-03-08T09:32:31;41.60;;;24.58;;
25962;SDS011;13760;52.588;13.406;2024-03-08T09:34:57;44.65;;;24.55;;
25962;SDS011;13760;52.588;13.406;2024-03-08T09:37:22;44.70;;;25.02;;
25962;SDS011;13760;52.588;13.406;2024-03-08T09:39:48;38.78;;;23.30;;
25962;SDS011;13760;52.588;13.406;2024-03-08T09:42:15;40.80;;;24.38;;
25962;SDS011;13760;52.588;13.406;2024-03-08T09:44:44;40.65;;;24.10;;
25962;SDS011;13760;52.588;13.406;2024-03-08T09:47:12;43.63;;;24.30;;
25962;SDS011;13760;52.588;13.406;2024-03-08T09:49:39;42.33;;;24.30;;
25962;SDS011;13760;52.588;13.406;2024-03-08T09:52:06;39.85;;;23.85;;
25962;SDS011;13760;52.588;13.406;2024-03-08T09:54:32;44.97;;;23.65;;
25962;SDS011;13760;52.588;13.406;2024-03-08T09:56:59;41.30;;;23.83;;
25962;SDS011;13760;52.588;13.406;2024-03-08T09:59:24;41.38;;;22.90;;
25962;SDS011;13760;52.588;13.406;2024-03-08T10:01:52;43.70;;;24.88;;
25962;SDS011;13760;52.588;13.406;2024-03-08T10:04:21;40.40;;;23.90;;
25962;SDS011;13760;52.588;13.406;2024-03-08T10:06:49;40.25;;;22.70;;
25962;SDS011;13760;52.588;13.406;2024-03-08T10:09:18;40.88;;;22.67;;
25962;SDS011;13760;52.588;13.406;2024-03-08T10:11:45;38.85;;;22.48;;
25962;SDS011;13760;52.588;13.406;2024-03-08T10:14:11;38.50;;;23.13;;
25962;SDS011;13760;52.588;13.406;2024-03-08T10:16:38;40.33;;;21.58;;
25962;SDS011;13760;52.588;13.406;2024-03-08T10:19:04;34.72;;;21.25;;
25962;SDS011;13760;52.588;13.406;2024-03-08T10:21:30;38.15;;;21.45;;
25962;SDS011;13760;52.588;13.406;2024-03-08T10:23:57;35.40;;;21.60;;
25962;SDS011;13760;52.588;13.406;2024-03-08T10:26:24;37.47;;;20.58;;
25962;SDS011;13760;52.588;13.406;2024-03-08T10:28:50;37.00;;;20.58;;
25962;SDS011;13760;52.588;13.406;2024-03-08T10:31:17;38.38;;;21.73;;
25962;SDS011;13760;52.588;13.406;2024-03-08T10:33:44;36.13;;;21.42;;
25962;SDS011;13760;52.588;13.406;2024-03-08T10:36:11;33.25;;;20.23;;
25962;SDS011;13760;52.588;13.406;2024-03-08T10:38:41;36.55;;;20.20;;
25962;SDS011;13760;52.588;13.406;2024-03-08T10:41:14;35.45;;;20.63;;
25962;SDS011;13760;52.588;13.406;2024-03-08T10:46:49;33.28;;;19.70;;
25962;SDS011;13760;52.588;13.406;2024-03-08T10:49:48;34.00;;;19.30;;
25962;SDS011;13760;52.588;13.406;2024-03-08T10:52:37;30.02;;;18.77;;
25962;SDS011;13760;52.588;13.406;2024-03-08T10:55:04;36.08;;;19.48;;
25962;SDS011;13760;52.588;13.406;2024-03-08T10:57:37;31.65;;;19.63;;
25962;SDS011;13760;52.588;13.406;2024-03-08T11:00:04;33.03;;;19.75;;
25962;SDS011;13760;52.588;13.406;2024-03-08T11:02:35;32.75;;;19.88;;
25962;SDS011;13760;52.588;13.406;2024-03-08T11:05:02;30.33;;;17.88;;
25962;SDS011;13760;52.588;13.406;2024-03-08T11:07:30;34.15;;;19.27;;
25962;SDS011;13760;52.588;13.406;2024-03-08T11:09:59;31.15;;;18.52;;
25962;SDS011;13760;52.588;13.406;2024-03-08T11:12:31;33.28;;;19.92;;
25962;SDS011;13760;52.588;13.406;2024-03-08T11:15:11;31.85;;;19.98;;
25962;SDS011;13760;52.588;13.406;2024-03-08T11:20:08;30.48;;;18.60;;
25962;SDS011;13760;52.588;13.406;2024-03-08T11:22:40;30.08;;;18.67;;
25962;SDS011;13760;52.588;13.406;2024-03-08T11:25:10;29.67;;;18.23;;
25962;SDS011;13760;52.588;13.406;2024-03-08T11:28:17;28.70;;;17.55;;
25962;SDS011;13760;52.588;13.406;2024-03-08T11:31:30;30.33;;;18.13;;
25962;SDS011;13760;52.588;13.406;2024-03-08T11:33:40;29.23;;;17.88;;
25962;SDS011;13760;52.588;13.406;2024-03-08T11:36:22;28.65;;;16.95;;
25962;SDS011;13760;52.588;13.406;2024-03-08T11:38:52;31.55;;;17.48;;
25962;SDS011;13760;52.588;13.406;2024-03-08T11:41:21;28.35;;;16.52;;
25962;SDS011;13760;52.588;13.406;2024-03-08T11:43:48;28.27;;;17.23;;
25962;SDS011;13760;52.588;13.406;2024-03-08T11:46:15;30.30;;;19.30;;
25962;SDS011;13760;52.588;13.406;2024-03-08T11:48:41;30.77;;;19.65;;
25962;SDS011;13760;52.588;13.406;2024-03-08T11:51:09;36.15;;;19.35;;
25962;SDS011;13760;52.588;13.406;2024-03-08T11:53:38;29.58;;;19.02;;
25962;SDS011;13760;52.588;13.406;2024-03-08T11:56:11;26.42;;;18.27;;
25962;SDS011;13760;52.588;13.406;2024-03-08T11:58:54;30.35;;;19.23;;
25962;SDS011;13760;52.588;13.406;2024-03-08T12:01:23;28.13;;;17.77;;
25962;SDS011;13760;52.588;13.406;2024-03-08T12:03:56;29.95;;;17.95;;
25962;SDS011;13760;52.588;13.406;2024-03-08T12:06:24;27.35;;;17.50;;
25962;SDS011;13760;52.588;13.406;2024-03-08T12:08:49;27.83;;;18.08;;
25962;SDS011;13760;52.588;13.406;2024-03-08T12:11:15;30.23;;;19.10;;
25962;SDS011;13760;52.588;13.406;2024-03-08T12:13:44;26.88;;;17.77;;
25962;SDS011;13760;52.588;13.406;2024-03-08T12:16:11;28.50;;;18.08;;
25962;SDS011;13760;52.588;13.406;2024-03-08T12:18:38;31.88;;;18.75;;
25962;SDS011;13760;52.588;13.406;2024-03-08T12:23:36;30.63;;;18.80;;
25962;SDS011;13760;52.588;13.406;2024-03-08T12:28:41;29.13;;;18.70;;
25962;SDS011;13760;52.588;13.406;2024-03-08T12:31:09;27.73;;;18.23;;
25962;SDS011;13760;52.588;13.406;2024-03-08T12:34:00;27.08;;;17.50;;
25962;SDS011;13760;52.588;13.406;2024-03-08T12:36:25;26.25;;;16.77;;
25962;SDS011;13760;52.588;13.406;2024-03-08T12:38:51;30.00;;;18.42;;
25962;SDS011;13760;52.588;13.406;2024-03-08T12:41:19;28.52;;;17.58;;
25962;SDS011;13760;52.588;13.406;2024-03-08T12:43:46;26.17;;;17.55;;
25962;SDS011;13760;52.588;13.406;2024-03-08T12:46:15;24.65;;;15.90;;
25962;SDS011;13760;52.588;13.406;2024-03-08T12:48:51;23.20;;;16.40;;
25962;SDS011;13760;52.588;13.406;2024-03-08T12:51:18;25.40;;;16.20;;
25962;SDS011;13760;52.588;13.406;2024-03-08T12:53:47;26.33;;;16.85;;
25962;SDS011;13760;52.588;13.406;2024-03-08T12:56:13;26.73;;;17.65;;
25962;SDS011;13760;52.588;13.406;2024-03-08T12:58:53;28.80;;;18.15;;
25962;SDS011;13760;52.588;13.406;2024-03-08T13:01:19;29.98;;;18.17;;
25962;SDS011;13760;52.588;13.406;2024-03-08T13:03:44;27.90;;;16.92;;
25962;SDS011;13760;52.588;13.406;2024-03-08T13:06:11;25.33;;;17.13;;
25962;SDS011;13760;52.588;13.406;2024-03-08T13:08:37;25.90;;;17.83;;
25962;SDS011;13760;52.588;13.406;2024-03-08T13:11:06;28.15;;;18.45;;
25962;SDS011;13760;52.588;13.406;2024-03-08T13:13:37;28.05;;;17.95;;
25962;SDS011;13760;52.588;13.406;2024-03-08T13:16:04;28.17;;;18.45;;
25962;SDS011;13760;52.588;13.406;2024-03-08T13:18:34;29.88;;;18.77;;
25962;SDS011;13760;52.588;13.406;2024-03-08T13:21:10;28.67;;;18.58;;
25962;SDS011;13760;52.588;13.406;2024-03-08T13:23:37;32.63;;;18.10;;
25962;SDS011;13760;52.588;13.406;2024-03-08T13:26:11;29.50;;;19.10;;
25962;SDS011;13760;52.588;13.406;2024-03-08T13:28:41;28.80;;;18.90;;
25962;SDS011;13760;52.588;13.406;2024-03-08T13:31:07;29.02;;;18.48;;
25962;SDS011;13760;52.588;13.406;2024-03-08T13:33:35;30.95;;;19.02;;
25962;SDS011;13760;52.588;13.406;2024-03-08T13:36:04;28.55;;;18.27;;
25962;SDS011;13760;52.588;13.406;2024-03-08T13:38:31;30.52;;;18.83;;
25962;SDS011;13760;52.588;13.406;2024-03-08T13:41:04;28.20;;;18.27;;
25962;SDS011;13760;52.588;13.406;2024-03-08T13:43:36;30.67;;;19.15;;
25962;SDS011;13760;52.588;13.406;2024-03-08T13:46:02;29.92;;;18.95;;
25962;SDS011;13760;52.588;13.406;2024-03-08T13:48:32;29.90;;;19.45;;
25962;SDS011;13760;52.588;13.406;2024-03-08T13:50:58;29.55;;;19.15;;
25962;SDS011;13760;52.588;13.406;2024-03-08T13:53:25;31.05;;;19.95;;
25962;SDS011;13760;52.588;13.406;2024-03-08T13:55:51;31.55;;;20.67;;
25962;SDS011;13760;52.588;13.406;2024-03-08T13:58:16;31.17;;;21.10;;
25962;SDS011;13760;52.588;13.406;2024-03-08T14:00:42;31.27;;;20.27;;
25962;SDS011;13760;52.588;13.406;2024-03-08T14:03:10;32.75;;;20.40;;
25962;SDS011;13760;52.588;13.406;2024-03-08T14:05:40;31.73;;;20.83;;
25962;SDS011;13760;52.588;13.406;2024-03-08T14:08:07;31.30;;;19.85;;
25962;SDS011;13760;52.588;13.406;2024-03-08T14:10:33;29.85;;;19.80;;
25962;SDS011;13760;52.588;13.406;2024-03-08T14:13:02;30.80;;;19.55;;
25962;SDS011;13760;52.588;13.406;2024-03-08T14:15:30;31.95;;;19.77;;
25962;SDS011;13760;52.588;13.406;2024-03-08T14:17:56;30.63;;;20.00;;
25962;SDS011;13760;52.588;13.406;2024-03-08T14:20:22;30.88;;;19.95;;
25962;SDS011;13760;52.588;13.406;2024-03-08T14:22:52;37.20;;;20.08;;